sensor_id;sensor_type;location;lat;lon;timestamp;temperature;humidity
75281;HTU21D;63874;47.230;39.620;2023-05-21T00:00:19;17.80;46.33
75281;HTU21D;63874;47.230;39.620;2023-05-21T00:02:45;17.78;46.41
75281;HTU21D;63874;47.230;39.620;2023-05-21T00:05:11;17.76;46.36
75281;HTU21D;63874;47.230;39.620;2023-05-21T00:07:39;17.74;46.47
75281;HTU21D;63874;47.230;39.620;2023-05-21T00:10:06;17.70;46.54
75281;HTU21D;63874;47.230;39.620;2023-05-21T00:12:32;17.69;46.61
75281;HTU21D;63874;47.230;39.620;2023-05-21T00:14:59;17.65;46.57
75281;HTU21D;63874;47.230;39.620;2023-05-21T00:17:26;17.63;46.66
75281;HTU21D;63874;47.230;39.620;2023-05-21T00:19:53;17.61;46.67
75281;HTU21D;63874;47.230;39.620;2023-05-21T00:22:21;17.55;46.68
75281;HTU21D;63874;47.230;39.620;2023-05-21T00:24:47;17.54;46.84
75281;HTU21D;63874;47.230;39.620;2023-05-21T00:27:13;17.49;46.80
75281;HTU21D;63874;47.230;39.620;2023-05-21T00:29:39;17.46;46.87
75281;HTU21D;63874;47.230;39.620;2023-05-21T00:32:05;17.44;46.96
75281;HTU21D;63874;47.230;39.620;2023-05-21T00:34:31;17.43;47.07
75281;HTU21D;63874;47.230;39.620;2023-05-21T00:36:57;17.38;47.07
75281;HTU21D;63874;47.230;39.620;2023-05-21T00:39:24;17.37;47.22
75281;HTU21D;63874;47.230;39.620;2023-05-21T00:41:49;17.35;47.25
75281;HTU21D;63874;47.230;39.620;2023-05-21T00:44:15;17.34;47.32
75281;HTU21D;63874;47.230;39.620;2023-05-21T00:46:43;17.30;47.38
75281;HTU21D;63874;47.230;39.620;2023-05-21T00:49:09;17.25;47.41
75281;HTU21D;63874;47.230;39.620;2023-05-21T00:51:36;17.23;47.47
75281;HTU21D;63874;47.230;39.620;2023-05-21T00:54:02;17.22;47.56
75281;HTU21D;63874;47.230;39.620;2023-05-21T00:56:28;17.20;47.56
75281;HTU21D;63874;47.230;39.620;2023-05-21T00:58:54;17.20;47.61
75281;HTU21D;63874;47.230;39.620;2023-05-21T01:01:24;17.17;47.62
75281;HTU21D;63874;47.230;39.620;2023-05-21T01:04:00;17.15;47.67
75281;HTU21D;63874;47.230;39.620;2023-05-21T01:06:26;17.11;47.70
75281;HTU21D;63874;47.230;39.620;2023-05-21T01:09:00;17.10;47.74
75281;HTU21D;63874;47.230;39.620;2023-05-21T01:11:37;17.10;48.08
75281;HTU21D;63874;47.230;39.620;2023-05-21T01:14:05;17.10;48.02
75281;HTU21D;63874;47.230;39.620;2023-05-21T01:16:36;17.07;48.10
75281;HTU21D;63874;47.230;39.620;2023-05-21T01:19:03;17.05;48.26
75281;HTU21D;63874;47.230;39.620;2023-05-21T01:21:30;17.04;48.46
75281;HTU21D;63874;47.230;39.620;2023-05-21T01:24:00;16.96;48.51
75281;HTU21D;63874;47.230;39.620;2023-05-21T01:26:26;16.93;48.69
75281;HTU21D;63874;47.230;39.620;2023-05-21T01:28:53;16.92;48.78
75281;HTU21D;63874;47.230;39.620;2023-05-21T01:31:28;16.87;48.84
75281;HTU21D;63874;47.230;39.620;2023-05-21T01:34:00;16.84;48.89
75281;HTU21D;63874;47.230;39.620;2023-05-21T01:36:32;16.85;49.15
75281;HTU21D;63874;47.230;39.620;2023-05-21T01:39:08;16.80;49.10
75281;HTU21D;63874;47.230;39.620;2023-05-21T01:41:37;16.77;49.16
75281;HTU21D;63874;47.230;39.620;2023-05-21T01:44:07;16.75;49.30
75281;HTU21D;63874;47.230;39.620;2023-05-21T01:46:35;16.73;49.20
75281;HTU21D;63874;47.230;39.620;2023-05-21T01:49:01;16.75;49.23
75281;HTU21D;63874;47.230;39.620;2023-05-21T01:51:28;16.76;49.17
75281;HTU21D;63874;47.230;39.620;2023-05-21T01:53:54;16.74;49.24
75281;HTU21D;63874;47.230;39.620;2023-05-21T01:56:20;16.74;49.15
75281;HTU21D;63874;47.230;39.620;2023-05-21T01:58:51;16.76;49.14
75281;HTU21D;63874;47.230;39.620;2023-05-21T02:01:17;16.77;49.08
75281;HTU21D;63874;47.230;39.620;2023-05-21T02:03:43;16.78;49.06
75281;HTU21D;63874;47.230;39.620;2023-05-21T02:06:09;16.79;48.93
75281;HTU21D;63874;47.230;39.620;2023-05-21T02:08:35;16.81;48.95
75281;HTU21D;63874;47.230;39.620;2023-05-21T02:11:03;16.81;48.93
75281;HTU21D;63874;47.230;39.620;2023-05-21T02:13:29;16.82;48.85
75281;HTU21D;63874;47.230;39.620;2023-05-21T02:15:55;16.84;48.79
75281;HTU21D;63874;47.230;39.620;2023-05-21T02:18:22;16.87;48.74
75281;HTU21D;63874;47.230;39.620;2023-05-21T02:20:49;16.89;48.69
75281;HTU21D;63874;47.230;39.620;2023-05-21T02:23:15;16.91;48.61
75281;HTU21D;63874;47.230;39.620;2023-05-21T02:25:41;16.93;48.51
75281;HTU21D;63874;47.230;39.620;2023-05-21T02:28:07;16.95;48.46
75281;HTU21D;63874;47.230;39.620;2023-05-21T02:30:33;17.01;48.39
75281;HTU21D;63874;47.230;39.620;2023-05-21T02:32:59;17.02;48.30
75281;HTU21D;63874;47.230;39.620;2023-05-21T02:35:25;17.05;48.23
75281;HTU21D;63874;47.230;39.620;2023-05-21T02:37:51;17.07;48.22
75281;HTU21D;63874;47.230;39.620;2023-05-21T02:40:18;17.09;48.18
75281;HTU21D;63874;47.230;39.620;2023-05-21T02:42:43;17.11;48.10
75281;HTU21D;63874;47.230;39.620;2023-05-21T02:45:14;17.14;48.05
75281;HTU21D;63874;47.230;39.620;2023-05-21T02:47:42;17.16;48.04
75281;HTU21D;63874;47.230;39.620;2023-05-21T02:50:08;17.17;48.00
75281;HTU21D;63874;47.230;39.620;2023-05-21T02:52:41;17.18;47.97
75281;HTU21D;63874;47.230;39.620;2023-05-21T02:55:08;17.19;48.01
75281;HTU21D;63874;47.230;39.620;2023-05-21T02:57:34;17.19;48.05
75281;HTU21D;63874;47.230;39.620;2023-05-21T03:00:00;17.20;48.06
75281;HTU21D;63874;47.230;39.620;2023-05-21T03:02:26;17.19;48.05
75281;HTU21D;63874;47.230;39.620;2023-05-21T03:04:53;17.21;48.11
75281;HTU21D;63874;47.230;39.620;2023-05-21T03:07:19;17.22;48.08
75281;HTU21D;63874;47.230;39.620;2023-05-21T03:09:45;17.23;48.07
75281;HTU21D;63874;47.230;39.620;2023-05-21T03:12:11;17.24;48.08
75281;HTU21D;63874;47.230;39.620;2023-05-21T03:14:37;17.25;48.08
75281;HTU21D;63874;47.230;39.620;2023-05-21T03:17:03;17.26;48.05
75281;HTU21D;63874;47.230;39.620;2023-05-21T03:19:34;17.31;48.05
75281;HTU21D;63874;47.230;39.620;2023-05-21T03:22:02;17.31;48.08
75281;HTU21D;63874;47.230;39.620;2023-05-21T03:24:30;17.33;48.04
75281;HTU21D;63874;47.230;39.620;2023-05-21T03:26:56;17.36;48.07
75281;HTU21D;63874;47.230;39.620;2023-05-21T03:29:24;17.38;48.05
75281;HTU21D;63874;47.230;39.620;2023-05-21T03:31:51;17.38;48.05
75281;HTU21D;63874;47.230;39.620;2023-05-21T03:34:18;17.40;48.02
75281;HTU21D;63874;47.230;39.620;2023-05-21T03:36:49;17.44;48.08
75281;HTU21D;63874;47.230;39.620;2023-05-21T03:39:17;17.48;48.03
75281;HTU21D;63874;47.230;39.620;2023-05-21T03:41:43;17.50;47.99
75281;HTU21D;63874;47.230;39.620;2023-05-21T03:44:15;17.55;47.96
75281;HTU21D;63874;47.230;39.620;2023-05-21T03:47:04;17.61;47.75
75281;HTU21D;63874;47.230;39.620;2023-05-21T03:49:33;17.64;47.71
75281;HTU21D;63874;47.230;39.620;2023-05-21T03:51:59;17.68;47.66
75281;HTU21D;63874;47.230;39.620;2023-05-21T03:54:26;17.74;47.61
75281;HTU21D;63874;47.230;39.620;2023-05-21T03:56:55;17.76;47.54
75281;HTU21D;63874;47.230;39.620;2023-05-21T03:59:23;17.77;47.51
75281;HTU21D;63874;47.230;39.620;2023-05-21T04:01:50;17.75;47.54
75281;HTU21D;63874;47.230;39.620;2023-05-21T04:04:16;17.74;47.73
75281;HTU21D;63874;47.230;39.620;2023-05-21T04:06:42;17.70;47.75
75281;HTU21D;63874;47.230;39.620;2023-05-21T04:09:09;17.67;47.87
75281;HTU21D;63874;47.230;39.620;2023-05-21T04:11:35;17.66;47.99
75281;HTU21D;63874;47.230;39.620;2023-05-21T04:14:02;17.66;48.05
75281;HTU21D;63874;47.230;39.620;2023-05-21T04:16:28;17.68;48.13
75281;HTU21D;63874;47.230;39.620;2023-05-21T04:18:54;17.68;48.15
75281;HTU21D;63874;47.230;39.620;2023-05-21T04:21:21;17.70;48.14
75281;HTU21D;63874;47.230;39.620;2023-05-21T04:23:47;17.73;48.09
75281;HTU21D;63874;47.230;39.620;2023-05-21T04:26:24;17.76;48.03
75281;HTU21D;63874;47.230;39.620;2023-05-21T04:28:50;17.80;47.99
75281;HTU21D;63874;47.230;39.620;2023-05-21T04:31:18;17.83;47.90
75281;HTU21D;63874;47.230;39.620;2023-05-21T04:33:45;17.89;47.80
75281;HTU21D;63874;47.230;39.620;2023-05-21T04:36:11;17.93;47.76
75281;HTU21D;63874;47.230;39.620;2023-05-21T04:38:37;17.99;47.74
75281;HTU21D;63874;47.230;39.620;2023-05-21T04:41:06;18.04;47.66
75281;HTU21D;63874;47.230;39.620;2023-05-21T04:43:35;18.12;47.61
75281;HTU21D;63874;47.230;39.620;2023-05-21T04:46:03;18.18;47.54
75281;HTU21D;63874;47.230;39.620;2023-05-21T04:48:29;18.26;47.51
75281;HTU21D;63874;47.230;39.620;2023-05-21T04:50:55;18.36;47.31
75281;HTU21D;63874;47.230;39.620;2023-05-21T04:53:22;18.43;47.24
75281;HTU21D;63874;47.230;39.620;2023-05-21T04:55:48;18.49;47.17
75281;HTU21D;63874;47.230;39.620;2023-05-21T04:58:14;18.52;47.19
75281;HTU21D;63874;47.230;39.620;2023-05-21T05:00:44;18.56;47.14
75281;HTU21D;63874;47.230;39.620;2023-05-21T05:03:15;18.65;47.05
75281;HTU21D;63874;47.230;39.620;2023-05-21T05:05:42;18.76;47.00
75281;HTU21D;63874;47.230;39.620;2023-05-21T05:08:08;18.82;46.86
75281;HTU21D;63874;47.230;39.620;2023-05-21T05:10:34;18.89;46.76
75281;HTU21D;63874;47.230;39.620;2023-05-21T05:13:00;18.94;46.79
75281;HTU21D;63874;47.230;39.620;2023-05-21T05:15:28;19.02;46.74
75281;HTU21D;63874;47.230;39.620;2023-05-21T05:17:54;19.13;46.70
75281;HTU21D;63874;47.230;39.620;2023-05-21T05:20:21;19.25;46.51
75281;HTU21D;63874;47.230;39.620;2023-05-21T05:22:48;19.38;46.39
75281;HTU21D;63874;47.230;39.620;2023-05-21T05:25:15;19.48;46.17
75281;HTU21D;63874;47.230;39.620;2023-05-21T05:27:41;19.57;46.05
75281;HTU21D;63874;47.230;39.620;2023-05-21T05:30:07;19.61;46.03
75281;HTU21D;63874;47.230;39.620;2023-05-21T05:32:34;19.71;45.88
75281;HTU21D;63874;47.230;39.620;2023-05-21T05:35:00;19.80;45.71
75281;HTU21D;63874;47.230;39.620;2023-05-21T05:37:26;19.91;45.62
75281;HTU21D;63874;47.230;39.620;2023-05-21T05:39:51;20.06;45.49
75281;HTU21D;63874;47.230;39.620;2023-05-21T05:42:17;20.19;45.11
75281;HTU21D;63874;47.230;39.620;2023-05-21T05:44:44;20.31;45.07
75281;HTU21D;63874;47.230;39.620;2023-05-21T05:47:10;20.42;44.73
75281;HTU21D;63874;47.230;39.620;2023-05-21T05:49:37;20.54;44.58
75281;HTU21D;63874;47.230;39.620;2023-05-21T05:52:03;20.72;44.47
75281;HTU21D;63874;47.230;39.620;2023-05-21T05:54:29;20.92;44.24
75281;HTU21D;63874;47.230;39.620;2023-05-21T05:56:55;21.17;43.91
75281;HTU21D;63874;47.230;39.620;2023-05-21T05:59:22;21.43;43.45
75281;HTU21D;63874;47.230;39.620;2023-05-21T06:01:49;21.58;42.95
75281;HTU21D;63874;47.230;39.620;2023-05-21T06:04:15;21.67;42.80
75281;HTU21D;63874;47.230;39.620;2023-05-21T06:06:41;21.76;42.66
75281;HTU21D;63874;47.230;39.620;2023-05-21T06:09:07;21.84;42.56
75281;HTU21D;63874;47.230;39.620;2023-05-21T06:11:33;21.92;42.56
75281;HTU21D;63874;47.230;39.620;2023-05-21T06:13:59;22.03;42.48
75281;HTU21D;63874;47.230;39.620;2023-05-21T06:16:27;22.12;42.34
75281;HTU21D;63874;47.230;39.620;2023-05-21T06:18:53;22.17;42.07
75281;HTU21D;63874;47.230;39.620;2023-05-21T06:21:19;22.17;41.68
75281;HTU21D;63874;47.230;39.620;2023-05-21T06:23:45;22.17;41.39
75281;HTU21D;63874;47.230;39.620;2023-05-21T06:26:11;22.18;41.39
75281;HTU21D;63874;47.230;39.620;2023-05-21T06:28:37;22.21;41.33
75281;HTU21D;63874;47.230;39.620;2023-05-21T06:31:04;22.24;41.05
75281;HTU21D;63874;47.230;39.620;2023-05-21T06:33:31;22.28;40.88
75281;HTU21D;63874;47.230;39.620;2023-05-21T06:35:57;22.34;40.64
75281;HTU21D;63874;47.230;39.620;2023-05-21T06:38:24;22.35;40.64
75281;HTU21D;63874;47.230;39.620;2023-05-21T06:40:50;22.38;40.36
75281;HTU21D;63874;47.230;39.620;2023-05-21T06:43:32;22.41;40.28
75281;HTU21D;63874;47.230;39.620;2023-05-21T06:46:16;22.44;40.14
75281;HTU21D;63874;47.230;39.620;2023-05-21T06:48:44;22.46;39.96
75281;HTU21D;63874;47.230;39.620;2023-05-21T06:51:13;22.48;39.83
75281;HTU21D;63874;47.230;39.620;2023-05-21T06:53:38;22.52;39.74
75281;HTU21D;63874;47.230;39.620;2023-05-21T06:56:05;22.56;39.54
75281;HTU21D;63874;47.230;39.620;2023-05-21T06:58:36;22.58;39.45
75281;HTU21D;63874;47.230;39.620;2023-05-21T07:01:03;22.63;39.40
75281;HTU21D;63874;47.230;39.620;2023-05-21T07:03:29;22.62;39.20
75281;HTU21D;63874;47.230;39.620;2023-05-21T07:05:56;22.61;39.27
75281;HTU21D;63874;47.230;39.620;2023-05-21T07:08:22;22.62;39.14
75281;HTU21D;63874;47.230;39.620;2023-05-21T07:10:49;22.61;39.04
75281;HTU21D;63874;47.230;39.620;2023-05-21T07:13:16;22.63;38.65
75281;HTU21D;63874;47.230;39.620;2023-05-21T07:15:42;22.60;38.64
75281;HTU21D;63874;47.230;39.620;2023-05-21T07:18:08;22.55;38.69
75281;HTU21D;63874;47.230;39.620;2023-05-21T07:20:34;22.55;38.61
75281;HTU21D;63874;47.230;39.620;2023-05-21T07:23:04;22.54;38.72
75281;HTU21D;63874;47.230;39.620;2023-05-21T07:25:30;22.55;38.56
75281;HTU21D;63874;47.230;39.620;2023-05-21T07:27:56;22.56;38.37
75281;HTU21D;63874;47.230;39.620;2023-05-21T07:30:22;22.61;38.33
75281;HTU21D;63874;47.230;39.620;2023-05-21T07:32:48;22.66;38.19
75281;HTU21D;63874;47.230;39.620;2023-05-21T07:35:14;22.68;38.16
75281;HTU21D;63874;47.230;39.620;2023-05-21T07:37:40;22.71;37.85
75281;HTU21D;63874;47.230;39.620;2023-05-21T07:40:07;22.73;37.59
75281;HTU21D;63874;47.230;39.620;2023-05-21T07:42:33;22.68;37.67
75281;HTU21D;63874;47.230;39.620;2023-05-21T07:45:00;22.67;37.50
75281;HTU21D;63874;47.230;39.620;2023-05-21T07:47:29;22.64;37.41
75281;HTU21D;63874;47.230;39.620;2023-05-21T07:49:56;22.56;37.30
75281;HTU21D;63874;47.230;39.620;2023-05-21T07:52:23;22.44;39.00
75281;HTU21D;63874;47.230;39.620;2023-05-21T07:54:49;22.23;40.94
75281;HTU21D;63874;47.230;39.620;2023-05-21T07:57:15;21.99;42.06
75281;HTU21D;63874;47.230;39.620;2023-05-21T07:59:53;21.78;42.58
75281;HTU21D;63874;47.230;39.620;2023-05-21T08:02:19;21.60;43.33
75281;HTU21D;63874;47.230;39.620;2023-05-21T08:04:45;21.46;43.88
75281;HTU21D;63874;47.230;39.620;2023-05-21T08:07:13;21.33;45.04
75281;HTU21D;63874;47.230;39.620;2023-05-21T08:09:41;21.20;46.00
75281;HTU21D;63874;47.230;39.620;2023-05-21T08:12:09;21.01;46.31
75281;HTU21D;63874;47.230;39.620;2023-05-21T08:14:35;20.89;46.49
75281;HTU21D;63874;47.230;39.620;2023-05-21T08:17:01;20.83;46.93
75281;HTU21D;63874;47.230;39.620;2023-05-21T08:19:28;20.73;47.21
75281;HTU21D;63874;47.230;39.620;2023-05-21T08:21:53;20.72;47.22
75281;HTU21D;63874;47.230;39.620;2023-05-21T08:24:21;20.70;47.54
75281;HTU21D;63874;47.230;39.620;2023-05-21T08:26:47;20.68;47.62
75281;HTU21D;63874;47.230;39.620;2023-05-21T08:29:14;20.65;47.92
75281;HTU21D;63874;47.230;39.620;2023-05-21T08:31:40;20.64;47.73
75281;HTU21D;63874;47.230;39.620;2023-05-21T08:34:07;20.62;47.44
75281;HTU21D;63874;47.230;39.620;2023-05-21T08:36:41;20.58;47.38
75281;HTU21D;63874;47.230;39.620;2023-05-21T08:39:30;20.47;47.63
75281;HTU21D;63874;47.230;39.620;2023-05-21T08:42:03;20.43;47.97
75281;HTU21D;63874;47.230;39.620;2023-05-21T08:44:33;20.34;48.24
75281;HTU21D;63874;47.230;39.620;2023-05-21T08:47:04;20.31;48.08
75281;HTU21D;63874;47.230;39.620;2023-05-21T08:49:33;20.26;48.04
75281;HTU21D;63874;47.230;39.620;2023-05-21T08:52:01;20.24;48.15
75281;HTU21D;63874;47.230;39.620;2023-05-21T08:54:27;20.20;48.34
75281;HTU21D;63874;47.230;39.620;2023-05-21T08:56:54;20.17;48.46
75281;HTU21D;63874;47.230;39.620;2023-05-21T08:59:21;20.16;48.66
75281;HTU21D;63874;47.230;39.620;2023-05-21T09:01:48;20.15;48.99
75281;HTU21D;63874;47.230;39.620;2023-05-21T09:04:25;20.10;49.25
75281;HTU21D;63874;47.230;39.620;2023-05-21T09:06:54;20.10;49.23
75281;HTU21D;63874;47.230;39.620;2023-05-21T09:09:56;20.07;49.47
75281;HTU21D;63874;47.230;39.620;2023-05-21T09:12:24;20.11;49.74
75281;HTU21D;63874;47.230;39.620;2023-05-21T09:14:50;20.10;49.80
75281;HTU21D;63874;47.230;39.620;2023-05-21T09:17:19;20.09;49.96
75281;HTU21D;63874;47.230;39.620;2023-05-21T09:20:13;20.11;50.05
75281;HTU21D;63874;47.230;39.620;2023-05-21T09:22:46;20.06;50.50
75281;HTU21D;63874;47.230;39.620;2023-05-21T09:25:19;20.03;50.63
75281;HTU21D;63874;47.230;39.620;2023-05-21T09:27:45;20.01;50.83
75281;HTU21D;63874;47.230;39.620;2023-05-21T09:30:14;20.00;50.92
75281;HTU21D;63874;47.230;39.620;2023-05-21T09:32:41;20.02;51.21
75281;HTU21D;63874;47.230;39.620;2023-05-21T09:35:12;20.01;51.27
75281;HTU21D;63874;47.230;39.620;2023-05-21T09:37:42;20.05;51.13
75281;HTU21D;63874;47.230;39.620;2023-05-21T09:40:13;20.06;50.56
75281;HTU21D;63874;47.230;39.620;2023-05-21T09:42:51;20.06;50.69
75281;HTU21D;63874;47.230;39.620;2023-05-21T09:45:24;20.02;51.10
75281;HTU21D;63874;47.230;39.620;2023-05-21T09:47:53;19.94;51.17
75281;HTU21D;63874;47.230;39.620;2023-05-21T09:50:23;19.87;51.12
75281;HTU21D;63874;47.230;39.620;2023-05-21T09:52:50;19.84;51.29
75281;HTU21D;63874;47.230;39.620;2023-05-21T09:55:18;19.83;51.36
75281;HTU21D;63874;47.230;39.620;2023-05-21T09:57:47;19.85;51.46
75281;HTU21D;63874;47.230;39.620;2023-05-21T10:00:31;19.88;51.30
75281;HTU21D;63874;47.230;39.620;2023-05-21T10:02:59;19.86;51.30
75281;HTU21D;63874;47.230;39.620;2023-05-21T10:05:27;19.80;51.41
75281;HTU21D;63874;47.230;39.620;2023-05-21T10:08:03;19.75;51.41
75281;HTU21D;63874;47.230;39.620;2023-05-21T10:10:30;19.71;51.57
75281;HTU21D;63874;47.230;39.620;2023-05-21T10:13:05;19.68;51.67
75281;HTU21D;63874;47.230;39.620;2023-05-21T10:15:37;19.66;51.85
75281;HTU21D;63874;47.230;39.620;2023-05-21T10:18:05;19.61;52.03
75281;HTU21D;63874;47.230;39.620;2023-05-21T10:20:35;19.60;52.11
75281;HTU21D;63874;47.230;39.620;2023-05-21T10:23:01;19.60;52.45
75281;HTU21D;63874;47.230;39.620;2023-05-21T10:25:28;19.60;52.38
75281;HTU21D;63874;47.230;39.620;2023-05-21T10:27:56;19.61;52.28
75281;HTU21D;63874;47.230;39.620;2023-05-21T10:30:23;19.65;52.05
75281;HTU21D;63874;47.230;39.620;2023-05-21T10:32:49;19.71;51.83
75281;HTU21D;63874;47.230;39.620;2023-05-21T10:35:16;19.72;51.78
75281;HTU21D;63874;47.230;39.620;2023-05-21T10:37:45;19.77;51.62
75281;HTU21D;63874;47.230;39.620;2023-05-21T10:40:11;19.83;50.95
75281;HTU21D;63874;47.230;39.620;2023-05-21T10:51:24;19.99;50.08
75281;HTU21D;63874;47.230;39.620;2023-05-21T10:54:21;20.17;49.77
75281;HTU21D;63874;47.230;39.620;2023-05-21T10:59:39;20.35;49.38
75281;HTU21D;63874;47.230;39.620;2023-05-21T11:02:08;20.45;49.11
75281;HTU21D;63874;47.230;39.620;2023-05-21T11:04:35;20.43;48.96
75281;HTU21D;63874;47.230;39.620;2023-05-21T11:07:04;20.41;48.63
75281;HTU21D;63874;47.230;39.620;2023-05-21T11:09:30;20.34;48.65
75281;HTU21D;63874;47.230;39.620;2023-05-21T11:11:57;20.30;48.78
75281;HTU21D;63874;47.230;39.620;2023-05-21T11:14:40;20.30;48.86
75281;HTU21D;63874;47.230;39.620;2023-05-21T11:17:37;20.34;48.76
75281;HTU21D;63874;47.230;39.620;2023-05-21T11:20:07;20.37;48.51
75281;HTU21D;63874;47.230;39.620;2023-05-21T11:22:34;20.37;48.59
75281;HTU21D;63874;47.230;39.620;2023-05-21T11:25:01;20.45;48.55
75281;HTU21D;63874;47.230;39.620;2023-05-21T11:29:58;20.75;48.11
75281;HTU21D;63874;47.230;39.620;2023-05-21T11:32:25;20.92;47.93
75281;HTU21D;63874;47.230;39.620;2023-05-21T11:34:51;21.05;47.73
75281;HTU21D;63874;47.230;39.620;2023-05-21T11:39:46;21.19;47.35
75281;HTU21D;63874;47.230;39.620;2023-05-21T11:42:25;21.28;47.08
75281;HTU21D;63874;47.230;39.620;2023-05-21T11:44:52;21.39;46.85
75281;HTU21D;63874;47.230;39.620;2023-05-21T11:47:18;21.53;46.54
75281;HTU21D;63874;47.230;39.620;2023-05-21T11:49:52;21.70;46.31
75281;HTU21D;63874;47.230;39.620;2023-05-21T11:52:18;21.79;46.00
75281;HTU21D;63874;47.230;39.620;2023-05-21T11:54:46;21.76;45.65
75281;HTU21D;63874;47.230;39.620;2023-05-21T11:57:15;21.63;45.56
75281;HTU21D;63874;47.230;39.620;2023-05-21T11:59:46;21.50;45.76
75281;HTU21D;63874;47.230;39.620;2023-05-21T12:02:17;21.42;45.64
75281;HTU21D;63874;47.230;39.620;2023-05-21T12:04:45;21.35;45.44
75281;HTU21D;63874;47.230;39.620;2023-05-21T12:07:12;21.31;45.59
75281;HTU21D;63874;47.230;39.620;2023-05-21T12:09:39;21.34;45.53
75281;HTU21D;63874;47.230;39.620;2023-05-21T12:12:11;21.37;45.61
75281;HTU21D;63874;47.230;39.620;2023-05-21T12:14:38;21.48;45.65
75281;HTU21D;63874;47.230;39.620;2023-05-21T12:17:05;21.59;45.54
75281;HTU21D;63874;47.230;39.620;2023-05-21T12:19:33;21.70;45.35
75281;HTU21D;63874;47.230;39.620;2023-05-21T12:22:00;21.80;44.96
75281;HTU21D;63874;47.230;39.620;2023-05-21T12:24:26;21.80;44.53
75281;HTU21D;63874;47.230;39.620;2023-05-21T12:26:52;21.72;44.62
75281;HTU21D;63874;47.230;39.620;2023-05-21T12:29:19;21.66;44.66
75281;HTU21D;63874;47.230;39.620;2023-05-21T12:31:48;21.66;44.88
75281;HTU21D;63874;47.230;39.620;2023-05-21T12:34:14;21.73;45.12
75281;HTU21D;63874;47.230;39.620;2023-05-21T12:36:43;21.78;45.22
75281;HTU21D;63874;47.230;39.620;2023-05-21T12:39:16;21.76;45.06
75281;HTU21D;63874;47.230;39.620;2023-05-21T12:41:42;21.77;45.20
75281;HTU21D;63874;47.230;39.620;2023-05-21T12:44:10;21.84;45.25
75281;HTU21D;63874;47.230;39.620;2023-05-21T12:46:36;21.90;45.01
75281;HTU21D;63874;47.230;39.620;2023-05-21T12:49:02;21.90;45.14
75281;HTU21D;63874;47.230;39.620;2023-05-21T12:51:38;21.88;45.44
75281;HTU21D;63874;47.230;39.620;2023-05-21T12:54:11;21.85;45.01
75281;HTU21D;63874;47.230;39.620;2023-05-21T12:56:44;21.78;45.03
75281;HTU21D;63874;47.230;39.620;2023-05-21T12:59:13;21.74;45.12
75281;HTU21D;63874;47.230;39.620;2023-05-21T13:01:41;21.73;45.16
75281;HTU21D;63874;47.230;39.620;2023-05-21T13:04:11;21.70;45.12
75281;HTU21D;63874;47.230;39.620;2023-05-21T13:06:41;21.69;44.83
75281;HTU21D;63874;47.230;39.620;2023-05-21T13:09:07;21.65;45.00
75281;HTU21D;63874;47.230;39.620;2023-05-21T13:11:33;21.62;45.15
75281;HTU21D;63874;47.230;39.620;2023-05-21T13:13:59;21.59;45.09
75281;HTU21D;63874;47.230;39.620;2023-05-21T13:16:25;21.55;44.91
75281;HTU21D;63874;47.230;39.620;2023-05-21T13:18:51;21.53;44.54
75281;HTU21D;63874;47.230;39.620;2023-05-21T13:21:16;21.47;44.12
75281;HTU21D;63874;47.230;39.620;2023-05-21T13:23:42;21.44;44.12
75281;HTU21D;63874;47.230;39.620;2023-05-21T13:26:08;21.42;44.13
75281;HTU21D;63874;47.230;39.620;2023-05-21T13:28:34;21.39;43.84
75281;HTU21D;63874;47.230;39.620;2023-05-21T13:31:00;21.35;44.00
75281;HTU21D;63874;47.230;39.620;2023-05-21T13:33:26;21.31;44.12
75281;HTU21D;63874;47.230;39.620;2023-05-21T13:35:52;21.28;44.06
75281;HTU21D;63874;47.230;39.620;2023-05-21T13:38:17;21.25;43.98
75281;HTU21D;63874;47.230;39.620;2023-05-21T13:40:43;21.19;44.16
75281;HTU21D;63874;47.230;39.620;2023-05-21T13:43:09;21.18;44.42
75281;HTU21D;63874;47.230;39.620;2023-05-21T13:45:35;21.13;44.58
75281;HTU21D;63874;47.230;39.620;2023-05-21T13:48:01;21.09;44.88
75281;HTU21D;63874;47.230;39.620;2023-05-21T13:50:27;21.05;45.19
75281;HTU21D;63874;47.230;39.620;2023-05-21T13:52:53;21.04;45.44
75281;HTU21D;63874;47.230;39.620;2023-05-21T13:55:19;21.03;45.77
75281;HTU21D;63874;47.230;39.620;2023-05-21T13:57:44;21.03;45.98
75281;HTU21D;63874;47.230;39.620;2023-05-21T14:00:11;21.04;46.31
75281;HTU21D;63874;47.230;39.620;2023-05-21T14:02:41;21.00;46.56
75281;HTU21D;63874;47.230;39.620;2023-05-21T14:05:08;20.99;46.57
75281;HTU21D;63874;47.230;39.620;2023-05-21T14:07:34;20.96;46.99
75281;HTU21D;63874;47.230;39.620;2023-05-21T14:10:00;20.94;47.07
75281;HTU21D;63874;47.230;39.620;2023-05-21T14:12:27;20.93;47.74
75281;HTU21D;63874;47.230;39.620;2023-05-21T14:14:53;20.91;48.22
75281;HTU21D;63874;47.230;39.620;2023-05-21T14:17:18;20.87;48.40
75281;HTU21D;63874;47.230;39.620;2023-05-21T14:19:44;20.85;48.73
75281;HTU21D;63874;47.230;39.620;2023-05-21T14:22:12;20.84;49.08
75281;HTU21D;63874;47.230;39.620;2023-05-21T14:24:38;20.78;49.25
75281;HTU21D;63874;47.230;39.620;2023-05-21T14:27:04;20.72;49.36
75281;HTU21D;63874;47.230;39.620;2023-05-21T14:29:30;20.66;49.52
75281;HTU21D;63874;47.230;39.620;2023-05-21T14:31:56;20.62;49.62
75281;HTU21D;63874;47.230;39.620;2023-05-21T14:34:22;20.60;49.89
75281;HTU21D;63874;47.230;39.620;2023-05-21T14:36:48;20.55;50.02
75281;HTU21D;63874;47.230;39.620;2023-05-21T14:39:13;20.51;50.05
75281;HTU21D;63874;47.230;39.620;2023-05-21T14:41:39;20.49;50.17
75281;HTU21D;63874;47.230;39.620;2023-05-21T14:44:05;20.47;50.28
75281;HTU21D;63874;47.230;39.620;2023-05-21T14:46:31;20.47;50.34
75281;HTU21D;63874;47.230;39.620;2023-05-21T14:48:57;20.48;50.26
75281;HTU21D;63874;47.230;39.620;2023-05-21T14:51:24;20.48;50.18
75281;HTU21D;63874;47.230;39.620;2023-05-21T14:53:50;20.47;50.11
75281;HTU21D;63874;47.230;39.620;2023-05-21T14:56:16;20.47;50.21
75281;HTU21D;63874;47.230;39.620;2023-05-21T14:58:42;20.46;50.23
75281;HTU21D;63874;47.230;39.620;2023-05-21T15:01:08;20.46;50.34
75281;HTU21D;63874;47.230;39.620;2023-05-21T15:03:33;20.46;50.46
75281;HTU21D;63874;47.230;39.620;2023-05-21T15:05:59;20.45;50.76
75281;HTU21D;63874;47.230;39.620;2023-05-21T15:08:25;20.43;50.99
75281;HTU21D;63874;47.230;39.620;2023-05-21T15:10:51;20.41;51.01
75281;HTU21D;63874;47.230;39.620;2023-05-21T15:13:17;20.40;51.24
75281;HTU21D;63874;47.230;39.620;2023-05-21T15:15:44;20.41;51.46
75281;HTU21D;63874;47.230;39.620;2023-05-21T15:18:09;20.41;51.72
75281;HTU21D;63874;47.230;39.620;2023-05-21T15:20:36;20.40;51.91
75281;HTU21D;63874;47.230;39.620;2023-05-21T15:23:01;20.39;52.04